createdAt,value
2018-11-02T00:00:15.560Z,79.64
2018-11-02T00:02:44.970Z,79.53
2018-11-02T00:05:13.721Z,79.86
2018-11-02T00:07:42.482Z,79.94
2018-11-02T00:10:11.373Z,80.58
2018-11-02T00:12:40.318Z,80.22
2018-11-02T00:15:09.094Z,80.48
2018-11-02T00:17:38.219Z,80.26
2018-11-02T00:20:07.349Z,80.52
2018-11-02T00:22:36.088Z,80.61
2018-11-02T00:25:05.038Z,80.63
2018-11-02T00:27:34.239Z,80.91
2018-11-02T00:30:02.987Z,81.05
2018-11-02T00:32:31.754Z,81.13
2018-11-02T00:35:00.439Z,80.94
2018-11-02T00:37:29.157Z,81.31
2018-11-02T00:39:58.215Z,81.27
2018-11-02T00:42:27.007Z,81.13
2018-11-02T00:44:55.798Z,81.37
2018-11-02T00:47:24.655Z,81.33
2018-11-02T00:49:53.368Z,81.52
2018-11-02T00:52:22.069Z,81.56
2018-11-02T00:54:50.955Z,81.72
2018-11-02T00:57:19.673Z,81.97
2018-11-02T00:59:48.373Z,81.75
2018-11-02T01:02:17.299Z,81.74
2018-11-02T01:04:45.984Z,82.16
2018-11-02T01:07:14.674Z,82.19
2018-11-02T01:09:43.470Z,81.73
2018-11-02T01:12:12.163Z,81.63
2018-11-02T01:14:40.850Z,81.41
2018-11-02T01:17:09.712Z,81.39
2018-11-02T01:19:38.464Z,81.18
2018-11-02T01:22:07.226Z,81.49
2018-11-02T01:24:36.052Z,81.40
2018-11-02T01:27:04.886Z,81.11
2018-11-02T01:29:34.263Z,80.96
2018-11-02T01:32:03.254Z,80.89
2018-11-02T01:34:31.966Z,80.72
2018-11-02T01:37:00.655Z,80.23
2018-11-02T01:39:29.475Z,80.47
2018-11-02T01:41:58.182Z,79.87
2018-11-02T01:44:26.869Z,80.00
2018-11-02T01:46:55.940Z,80.21
2018-11-02T01:49:24.603Z,80.12
2018-11-02T01:51:53.329Z,80.05
2018-11-02T01:54:22.414Z,80.17
2018-11-02T01:56:51.162Z,80.21
2018-11-02T01:59:19.849Z,80.27
2018-11-02T02:01:48.673Z,79.96
2018-11-02T02:04:17.382Z,79.97
2018-11-02T02:06:46.110Z,79.94
2018-11-02T02:09:14.955Z,80.07
2018-11-02T02:11:43.672Z,80.08
2018-11-02T02:14:12.422Z,80.01
2018-11-02T02:16:41.191Z,80.07
2018-11-02T02:19:09.881Z,80.06
2018-11-02T02:21:38.582Z,80.20
2018-11-02T02:24:07.403Z,79.71
2018-11-02T02:26:36.086Z,79.59
2018-11-02T02:29:05.288Z,79.40
2018-11-02T02:31:34.632Z,79.64
2018-11-02T02:34:04.316Z,79.53
2018-11-02T02:36:33.003Z,79.45
2018-11-02T02:39:01.872Z,79.23
2018-11-02T02:41:30.578Z,78.87
2018-11-02T02:43:59.264Z,78.73
2018-11-02T02:46:27.977Z,78.52
2018-11-02T02:48:56.784Z,78.08
2018-11-02T02:51:25.457Z,77.92
2018-11-02T02:53:54.220Z,77.72
2018-11-02T02:56:22.930Z,77.43
2018-11-02T02:58:51.647Z,77.03
2018-11-02T03:01:20.398Z,76.80
2018-11-02T03:03:49.118Z,76.38
2018-11-02T03:06:17.819Z,75.79
2018-11-02T03:08:46.651Z,75.91
2018-11-02T03:11:15.479Z,75.98
2018-11-02T03:13:44.048Z,75.54
2018-11-02T03:16:12.841Z,75.18
2018-11-02T03:18:42.096Z,75.03
2018-11-02T03:21:10.722Z,75.20
2018-11-02T03:23:39.450Z,75.00
2018-11-02T03:26:08.145Z,74.62
2018-11-02T03:28:36.859Z,75.01
2018-11-02T03:31:05.817Z,75.16
2018-11-02T03:33:34.658Z,74.70
2018-11-02T03:36:04.478Z,74.60
2018-11-02T03:38:33.230Z,74.42
2018-11-02T03:41:01.970Z,74.20
2018-11-02T03:43:30.696Z,74.02
2018-11-02T03:45:59.458Z,73.91
2018-11-02T03:48:28.137Z,73.77
2018-11-02T03:50:57.269Z,73.59
2018-11-02T03:53:26.237Z,73.50
2018-11-02T03:55:54.937Z,73.94
2018-11-02T03:58:23.647Z,73.98
2018-11-02T04:00:52.488Z,74.43
2018-11-02T04:03:21.191Z,74.62
2018-11-02T04:05:49.866Z,74.65
2018-11-02T04:08:18.694Z,75.13
2018-11-02T04:10:47.495Z,75.15
2018-11-02T04:13:16.178Z,75.53
2018-11-02T04:15:45.230Z,75.66
2018-11-02T04:18:13.953Z,75.59
2018-11-02T04:20:42.647Z,75.43
2018-11-02T04:23:11.900Z,75.35
2018-11-02T04:25:40.686Z,75.36
2018-11-02T04:28:09.460Z,75.67
2018-11-02T04:30:38.532Z,76.03
2018-11-02T04:33:07.237Z,75.89
2018-11-02T04:35:35.993Z,75.79
2018-11-02T04:38:04.786Z,75.35
2018-11-02T04:40:34.487Z,75.05
2018-11-02T04:43:03.198Z,74.81
2018-11-02T04:45:37.221Z,74.78
2018-11-02T04:48:06.422Z,74.71
2018-11-02T04:50:35.086Z,74.29
2018-11-02T04:53:05.101Z,74.57
2018-11-02T04:55:34.650Z,74.32
2018-11-02T04:58:03.354Z,74.08
2018-11-02T05:00:32.537Z,74.08
2018-11-02T05:03:01.854Z,73.61
2018-11-02T05:05:30.555Z,73.67
2018-11-02T05:07:59.281Z,73.64
2018-11-02T05:10:28.186Z,73.70
2018-11-02T05:12:56.912Z,73.75
2018-11-02T05:15:25.739Z,73.60
2018-11-02T05:17:54.536Z,73.47
2018-11-02T05:20:23.228Z,73.37
2018-11-02T05:22:52.201Z,73.49
2018-11-02T05:25:20.902Z,73.89
2018-11-02T05:27:49.682Z,73.98
2018-11-02T05:30:18.491Z,73.71
2018-11-02T05:32:47.225Z,74.20
2018-11-02T05:35:15.905Z,74.41
2018-11-02T05:37:44.750Z,74.29
2018-11-02T05:40:13.471Z,74.29
2018-11-02T05:42:42.150Z,74.21
2018-11-02T05:45:10.946Z,73.96
2018-11-02T05:47:39.638Z,74.27
2018-11-02T05:50:08.372Z,73.93
2018-11-02T05:52:37.254Z,74.29
2018-11-02T05:55:08.024Z,74.21
2018-11-02T05:57:36.810Z,74.26
2018-11-02T06:00:06.474Z,73.87
2018-11-02T06:02:35.199Z,73.84
2018-11-02T06:05:04.763Z,74.03
2018-11-02T06:07:33.671Z,73.60
2018-11-02T06:10:02.388Z,73.63
2018-11-02T06:12:31.126Z,73.77
2018-11-02T06:14:59.946Z,74.21
2018-11-02T06:17:28.687Z,74.38
2018-11-02T06:19:57.378Z,74.48
2018-11-02T06:22:26.500Z,74.17
2018-11-02T06:24:55.222Z,74.09
2018-11-02T06:27:23.938Z,74.14
2018-11-02T06:29:52.851Z,74.13
2018-11-02T06:32:21.591Z,73.97
2018-11-02T06:34:50.305Z,73.57
2018-11-02T06:37:19.206Z,73.40
2018-11-02T06:39:47.991Z,73.05
2018-11-02T06:42:16.798Z,72.96
2018-11-02T06:44:45.668Z,72.86
2018-11-02T06:47:14.427Z,72.69
2018-11-02T06:49:43.138Z,72.88
2018-11-02T06:52:12.118Z,72.51
2018-11-02T06:54:40.830Z,72.91
2018-11-02T06:57:09.591Z,72.56
2018-11-02T06:59:38.852Z,72.57
2018-11-02T07:02:08.024Z,72.27
2018-11-02T07:04:36.759Z,72.23
2018-11-02T07:07:05.587Z,71.67
2018-11-02T07:09:34.841Z,71.70
2018-11-02T07:12:03.497Z,71.91
2018-11-02T07:14:32.606Z,72.26
2018-11-02T07:17:01.386Z,72.28
2018-11-02T07:19:30.184Z,72.18
2018-11-02T07:21:58.994Z,72.32
2018-11-02T07:24:27.761Z,71.94
2018-11-02T07:26:56.559Z,71.86
2018-11-02T07:29:25.406Z,71.77
2018-11-02T07:31:54.130Z,71.91
2018-11-02T07:34:22.860Z,71.62
2018-11-02T07:36:51.668Z,71.38
2018-11-02T07:39:20.323Z,71.32
2018-11-02T07:41:49.289Z,71.79
2018-11-02T07:44:18.114Z,71.59
2018-11-02T07:46:46.820Z,71.22
2018-11-02T07:49:15.603Z,71.26
2018-11-02T07:51:44.451Z,71.58
2018-11-02T07:54:13.296Z,71.08
2018-11-02T07:56:42.049Z,70.51
2018-11-02T07:59:10.954Z,70.50
2018-11-02T08:01:39.981Z,70.83
2018-11-02T08:04:08.605Z,72.50
2018-11-02T08:06:37.482Z,73.29
2018-11-02T08:09:09.134Z,73.32
2018-11-02T08:11:38.014Z,73.07
2018-11-02T08:14:06.901Z,73.15
2018-11-02T08:16:35.920Z,72.84
2018-11-02T08:19:05.171Z,73.74
2018-11-02T08:21:35.004Z,74.25
2018-11-02T08:24:04.120Z,73.98
2018-11-02T08:26:32.818Z,74.09
2018-11-02T08:29:01.719Z,74.04
2018-11-02T08:31:30.414Z,73.77
2018-11-02T08:33:59.072Z,73.74
2018-11-02T08:36:27.774Z,74.16
2018-11-02T08:38:56.435Z,74.90
2018-11-02T08:41:25.117Z,74.43
2018-11-02T08:43:54.428Z,74.14
2018-11-02T08:46:23.249Z,74.35
2018-11-02T08:48:52.094Z,74.69
2018-11-02T08:51:21.008Z,74.30
2018-11-02T08:53:49.684Z,74.36
2018-11-02T08:56:18.410Z,74.37
2018-11-02T08:58:47.550Z,74.95
2018-11-02T09:01:16.020Z,74.61
2018-11-02T09:03:44.712Z,74.54
2018-11-02T09:06:13.522Z,74.45
2018-11-02T09:08:42.259Z,73.95
2018-11-02T09:11:10.947Z,73.11
2018-11-02T09:13:39.757Z,72.91
2018-11-02T09:16:08.481Z,73.01
2018-11-02T09:18:37.238Z,73.05
2018-11-02T09:21:06.086Z,72.27
2018-11-02T09:23:35.039Z,72.06
2018-11-02T09:26:03.776Z,71.48
2018-11-02T09:28:32.615Z,71.12
2018-11-02T09:31:01.299Z,71.16
2018-11-02T09:33:30.015Z,70.96
2018-11-02T09:35:58.843Z,70.68
2018-11-02T09:38:27.558Z,70.51
2018-11-02T09:40:56.253Z,70.81
2018-11-02T09:43:25.071Z,71.29
2018-11-02T09:45:54.057Z,71.07
2018-11-02T09:48:22.736Z,70.35
2018-11-02T09:50:51.657Z,70.79
2018-11-02T09:53:20.429Z,69.85
2018-11-02T09:55:49.200Z,70.32
2018-11-02T09:58:18.354Z,70.53
2018-11-02T10:00:47.170Z,68.96
2018-11-02T10:03:15.810Z,67.69
2018-11-02T10:05:44.698Z,67.39
2018-11-02T10:08:13.440Z,67.16
2018-11-02T10:10:42.309Z,67.12
2018-11-02T10:13:11.132Z,66.91
2018-11-02T10:15:39.917Z,66.44
2018-11-02T10:18:08.643Z,65.79
2018-11-02T10:20:37.413Z,65.18
2018-11-02T10:23:06.529Z,65.11
2018-11-02T10:25:35.284Z,64.82
2018-11-02T10:28:04.345Z,64.03
2018-11-02T10:30:33.207Z,64.26
2018-11-02T10:33:02.067Z,64.01
2018-11-02T10:35:31.196Z,63.68
2018-11-02T10:38:00.891Z,63.52
2018-11-02T10:40:31.323Z,63.85
2018-11-02T10:43:02.902Z,62.84
2018-11-02T10:45:34.363Z,62.45
2018-11-02T10:48:04.412Z,62.54
2018-11-02T10:50:33.135Z,62.58
2018-11-02T10:53:01.838Z,62.60
2018-11-02T10:55:30.746Z,62.08
2018-11-02T10:57:59.523Z,62.33
2018-11-02T11:00:33.649Z,62.16
2018-11-02T11:03:02.371Z,61.99
2018-11-02T11:05:31.158Z,61.54
2018-11-02T11:07:59.998Z,60.32
2018-11-02T11:10:28.766Z,57.99
2018-11-02T11:12:57.668Z,57.06
2018-11-02T11:15:26.315Z,56.75
2018-11-02T11:17:55.067Z,57.07
2018-11-02T11:20:23.836Z,57.07
2018-11-02T11:22:52.783Z,57.50
2018-11-02T11:25:28.126Z,58.84
2018-11-02T11:27:56.931Z,58.63
2018-11-02T11:30:25.749Z,58.60
2018-11-02T11:32:54.436Z,58.00
2018-11-02T11:35:23.235Z,56.91
2018-11-02T11:37:52.050Z,57.14
2018-11-02T11:40:21.662Z,57.43
2018-11-02T11:42:50.474Z,58.00
2018-11-02T11:45:19.966Z,58.06
2018-11-02T11:47:48.702Z,58.48
2018-11-02T11:50:20.402Z,58.75
2018-11-02T11:52:50.539Z,59.56
2018-11-02T11:55:19.411Z,59.09
2018-11-02T11:57:48.466Z,59.00
2018-11-02T12:00:19.366Z,58.67
2018-11-02T12:02:48.882Z,58.78
2018-11-02T12:05:19.132Z,58.29
2018-11-02T12:07:48.060Z,56.34
2018-11-02T12:10:22.037Z,56.52
2018-11-02T12:12:50.756Z,55.19
2018-11-02T12:15:20.731Z,55.69
2018-11-02T12:17:50.242Z,54.45
2018-11-02T12:20:27.364Z,54.23
2018-11-02T12:22:57.831Z,54.60
2018-11-02T12:25:26.662Z,54.92
2018-11-02T12:27:55.491Z,54.64
2018-11-02T12:30:24.422Z,54.48
2018-11-02T12:32:53.213Z,54.30
2018-11-02T12:35:21.988Z,54.21
2018-11-02T12:37:51.102Z,53.96
2018-11-02T12:40:21.047Z,54.31
2018-11-02T12:42:50.761Z,54.68
2018-11-02T12:45:20.550Z,54.91
2018-11-02T12:47:49.411Z,54.56
2018-11-02T12:50:22.755Z,55.16
2018-11-02T12:52:52.461Z,55.64
2018-11-02T12:55:21.773Z,55.69
2018-11-02T12:57:50.687Z,56.15
2018-11-02T13:00:20.779Z,56.00
2018-11-02T13:02:50.258Z,56.02
2018-11-02T13:05:19.413Z,56.36
2018-11-02T13:07:48.141Z,56.42
2018-11-02T13:10:18.093Z,56.49
2018-11-02T13:12:47.219Z,56.71
2018-11-02T13:15:17.106Z,56.63
2018-11-02T13:17:47.019Z,57.14
2018-11-02T13:20:16.076Z,57.20
2018-11-02T13:22:45.530Z,57.00
2018-11-02T13:25:15.651Z,57.25
2018-11-02T13:27:44.996Z,57.20
2018-11-02T13:30:13.714Z,57.34
2018-11-02T13:32:42.415Z,57.28
2018-11-02T13:35:14.283Z,57.18
2018-11-02T13:37:43.599Z,57.20
2018-11-02T13:40:13.721Z,57.25
2018-11-02T13:42:42.893Z,56.69
2018-11-02T13:45:12.861Z,56.68
2018-11-02T13:47:42.368Z,56.55
2018-11-02T13:50:11.792Z,56.60
2018-11-02T13:52:41.268Z,56.67
2018-11-02T13:55:10.705Z,56.61
2018-11-02T13:57:39.940Z,56.49
2018-11-02T14:00:10.932Z,56.50
2018-11-02T14:02:39.664Z,56.49
2018-11-02T14:05:09.888Z,55.97
2018-11-02T14:07:38.579Z,55.81
2018-11-02T14:10:07.854Z,55.46
2018-11-02T14:12:36.711Z,55.15
2018-11-02T14:15:07.141Z,53.95
2018-11-02T14:17:35.863Z,54.03
2018-11-02T14:22:47.278Z,53.25
2018-11-02T14:25:17.154Z,51.69
2018-11-02T14:27:46.212Z,52.01
2018-11-02T14:30:16.353Z,51.98
2018-11-02T14:32:45.682Z,52.30
2018-11-02T14:35:14.412Z,52.17
2018-11-02T14:37:43.181Z,51.38
2018-11-02T14:40:12.173Z,51.99
2018-11-02T14:42:41.682Z,51.66
2018-11-02T14:45:12.618Z,51.97
2018-11-02T14:47:41.370Z,52.33
2018-11-02T14:50:10.658Z,52.02
2018-11-02T14:52:39.849Z,52.69
2018-11-02T14:55:09.227Z,52.53
2018-11-02T14:57:38.019Z,53.20
2018-11-02T15:00:08.484Z,52.72
2018-11-02T15:02:37.195Z,52.83
2018-11-02T15:05:06.534Z,53.14
2018-11-02T15:07:36.386Z,53.57
2018-11-02T15:10:05.960Z,53.86
2018-11-02T15:12:35.705Z,53.51
2018-11-02T15:15:04.722Z,54.27
2018-11-02T15:17:33.465Z,54.33
2018-11-02T15:20:02.281Z,54.27
2018-11-02T15:22:31.066Z,54.44
2018-11-02T15:24:59.797Z,54.91
2018-11-02T15:27:28.750Z,54.81
2018-11-02T15:29:57.651Z,55.58
2018-11-02T15:32:26.434Z,55.42
2018-11-02T15:34:55.156Z,55.46
2018-11-02T15:37:24.561Z,55.89
2018-11-02T15:39:53.319Z,56.51
2018-11-02T15:42:22.086Z,56.77
2018-11-02T15:44:51.018Z,56.65
2018-11-02T15:47:19.591Z,56.95
2018-11-02T15:49:48.391Z,57.04
2018-11-02T15:52:17.218Z,56.76
2018-11-02T15:54:45.978Z,56.64
2018-11-02T15:57:14.755Z,56.41
2018-11-02T15:59:43.551Z,56.31
2018-11-02T16:02:12.299Z,56.62
2018-11-02T16:04:40.979Z,56.70
2018-11-02T16:07:09.897Z,56.82
2018-11-02T16:09:38.574Z,57.06
2018-11-02T16:12:07.277Z,56.90
2018-11-02T16:14:36.107Z,57.23
2018-11-02T16:17:06.006Z,57.43
2018-11-02T16:19:35.710Z,57.71
2018-11-02T16:22:04.478Z,57.70
2018-11-02T16:24:33.315Z,57.63
2018-11-02T16:27:02.096Z,57.54
2018-11-02T16:29:30.969Z,58.01
2018-11-02T16:31:59.673Z,58.24
2018-11-02T16:34:29.299Z,58.20
2018-11-02T16:36:58.591Z,58.34
2018-11-02T16:39:27.358Z,58.54
2018-11-02T16:41:56.088Z,58.81
2018-11-02T16:44:24.931Z,58.65
2018-11-02T16:46:53.601Z,58.79
2018-11-02T16:49:22.282Z,58.96
2018-11-02T16:51:51.265Z,59.07
2018-11-02T16:54:20.017Z,59.09
2018-11-02T16:56:48.715Z,58.86
2018-11-02T16:59:17.643Z,59.27
2018-11-02T17:01:46.426Z,59.59
2018-11-02T17:04:15.083Z,60.10
2018-11-02T17:06:43.839Z,59.84
2018-11-02T17:09:13.545Z,59.82
2018-11-02T17:11:42.445Z,60.23
2018-11-02T17:14:11.230Z,60.05
2018-11-02T17:16:39.925Z,60.55
2018-11-02T17:19:09.898Z,61.16
2018-11-02T17:21:38.857Z,61.14
2018-11-02T17:24:07.535Z,61.37
2018-11-02T17:26:36.251Z,61.18
2018-11-02T17:29:06.449Z,61.33
2018-11-02T17:31:35.729Z,61.40
2018-11-02T17:34:05.828Z,61.30
2018-11-02T17:36:34.781Z,61.46
2018-11-02T17:39:03.937Z,61.76
2018-11-02T17:41:32.645Z,61.87
2018-11-02T17:44:01.503Z,62.02
2018-11-02T17:46:30.333Z,62.03
2018-11-02T17:48:59.046Z,61.95
2018-11-02T17:51:27.887Z,61.93
2018-11-02T17:53:56.630Z,62.18
2018-11-02T17:56:25.339Z,62.16
2018-11-02T17:58:54.128Z,62.11
2018-11-02T18:01:22.942Z,62.48
2018-11-02T18:03:51.670Z,62.67
2018-11-02T18:06:20.420Z,62.58
2018-11-02T18:08:49.162Z,62.95
2018-11-02T18:11:17.863Z,63.05
2018-11-02T18:13:46.611Z,63.32
2018-11-02T18:16:15.351Z,63.71
2018-11-02T18:18:44.092Z,63.79
2018-11-02T18:21:12.853Z,64.02
2018-11-02T18:23:43.003Z,63.78
2018-11-02T18:26:11.706Z,63.63
2018-11-02T18:28:40.462Z,64.01
2018-11-02T18:31:09.159Z,64.30
2018-11-02T18:33:37.868Z,64.33
2018-11-02T18:36:06.707Z,64.48
2018-11-02T18:38:35.992Z,64.59
2018-11-02T18:41:04.782Z,64.25
2018-11-02T18:43:33.566Z,64.46
2018-11-02T18:46:02.262Z,64.63
2018-11-02T18:48:31.023Z,64.64
2018-11-02T18:50:59.774Z,64.62
2018-11-02T18:53:28.484Z,64.90
2018-11-02T18:55:57.175Z,64.62
2018-11-02T18:58:25.929Z,64.84
2018-11-02T19:00:54.600Z,64.97
2018-11-02T19:03:23.496Z,64.85
2018-11-02T19:05:52.267Z,64.88
2018-11-02T19:08:20.944Z,64.61
2018-11-02T19:10:49.626Z,64.66
2018-11-02T19:13:18.480Z,64.68
2018-11-02T19:15:47.229Z,64.70
2018-11-02T19:18:15.978Z,64.61
2018-11-02T19:20:44.796Z,64.65
2018-11-02T19:23:13.503Z,64.62
2018-11-02T19:25:42.252Z,64.64
2018-11-02T19:28:11.064Z,64.94
2018-11-02T19:30:39.932Z,64.78
2018-11-02T19:33:08.710Z,64.81
2018-11-02T19:35:37.831Z,64.84
2018-11-02T19:38:07.197Z,64.97
2018-11-02T19:40:36.132Z,64.88
2018-11-02T19:43:04.991Z,64.82
2018-11-02T19:45:33.701Z,64.95
2018-11-02T19:48:03.629Z,64.88
2018-11-02T19:50:32.555Z,64.97
2018-11-02T19:53:01.328Z,64.82
2018-11-02T19:55:30.148Z,64.91
2018-11-02T19:57:58.919Z,64.97
2018-11-02T20:00:27.750Z,64.88
2018-11-02T20:02:56.415Z,65.12
2018-11-02T20:05:25.517Z,65.11
2018-11-02T20:07:54.214Z,65.25
2018-11-02T20:10:24.047Z,65.05
2018-11-02T20:12:53.196Z,65.21
2018-11-02T20:15:21.965Z,65.11
2018-11-02T20:17:50.784Z,65.34
2018-11-02T20:20:19.579Z,65.18
2018-11-02T20:22:48.274Z,65.09
2018-11-02T20:25:17.815Z,65.02
2018-11-02T20:27:46.570Z,65.11
2018-11-02T20:30:17.597Z,65.21
2018-11-02T20:32:46.488Z,65.31
2018-11-02T20:35:15.481Z,65.09
2018-11-02T20:37:44.282Z,64.94
2018-11-02T20:40:15.420Z,64.93
2018-11-02T20:42:44.920Z,65.40
2018-11-02T20:45:14.049Z,65.16
2018-11-02T20:47:48.255Z,65.60
2018-11-02T20:50:17.070Z,65.36
2018-11-02T20:52:45.791Z,65.52
2018-11-02T20:55:15.097Z,65.70
2018-11-02T20:57:44.080Z,65.84
2018-11-02T21:00:14.715Z,65.66
2018-11-02T21:02:44.255Z,65.79
2018-11-02T21:05:13.897Z,65.81
2018-11-02T21:07:43.382Z,66.14
2018-11-02T21:10:14.370Z,66.38
2018-11-02T21:12:43.093Z,66.29
2018-11-02T21:15:14.696Z,66.56
2018-11-02T21:17:43.807Z,67.21
2018-11-02T21:20:20.408Z,67.01
2018-11-02T21:22:49.881Z,67.59
2018-11-02T21:25:18.614Z,67.68
2018-11-02T21:27:47.724Z,67.69
2018-11-02T21:30:19.114Z,67.77
2018-11-02T21:32:48.483Z,68.04
2018-11-02T21:35:17.729Z,67.94
2018-11-02T21:37:47.155Z,68.14
2018-11-02T21:40:18.053Z,68.31
2018-11-02T21:42:46.894Z,68.44
2018-11-02T21:45:17.850Z,68.42
2018-11-02T21:47:46.735Z,68.25
2018-11-02T21:50:16.002Z,68.67
2018-11-02T21:52:45.038Z,68.53
2018-11-02T21:55:13.742Z,68.55
2018-11-02T21:57:42.448Z,68.68
2018-11-02T22:00:13.750Z,68.68
2018-11-02T22:02:42.494Z,68.89
2018-11-02T22:05:12.532Z,68.68
2018-11-02T22:07:42.524Z,68.89
2018-11-02T22:10:12.268Z,69.07
2018-11-02T22:12:40.990Z,68.52
2018-11-02T22:15:10.681Z,68.54
2018-11-02T22:17:40.097Z,68.97
2018-11-02T22:20:10.411Z,68.66
2018-11-02T22:22:46.190Z,68.76
2018-11-02T22:25:15.558Z,68.71
2018-11-02T22:27:44.230Z,68.81
2018-11-02T22:30:15.455Z,68.89
2018-11-02T22:32:44.178Z,68.98
2018-11-02T22:35:13.617Z,68.73
2018-11-02T22:37:42.771Z,68.92
2018-11-02T22:40:12.323Z,68.99
2018-11-02T22:42:41.618Z,69.06
2018-11-02T22:45:12.766Z,69.48
2018-11-02T22:47:42.143Z,69.12
2018-11-02T22:50:11.157Z,69.39
2018-11-02T22:52:39.898Z,69.55
2018-11-02T22:55:09.192Z,69.81
2018-11-02T22:57:37.861Z,69.83
2018-11-02T23:00:13.163Z,69.92
2018-11-02T23:02:41.872Z,70.01
2018-11-02T23:05:11.092Z,70.29
2018-11-02T23:07:39.901Z,70.30
2018-11-02T23:10:08.909Z,70.50
2018-11-02T23:12:37.698Z,70.62
2018-11-02T23:15:07.622Z,70.51
2018-11-02T23:17:36.462Z,70.55
2018-11-02T23:20:06.168Z,70.53
2018-11-02T23:22:35.302Z,70.63
2018-11-02T23:25:04.127Z,70.75
2018-11-02T23:27:32.853Z,70.80
2018-11-02T23:30:01.752Z,70.71
2018-11-02T23:32:30.414Z,70.89
2018-11-02T23:35:06.014Z,70.90
2018-11-02T23:37:35.083Z,70.53
2018-11-02T23:40:04.043Z,70.91
2018-11-02T23:42:32.918Z,71.11
2018-11-02T23:45:01.799Z,70.92
2018-11-02T23:47:30.430Z,70.93
2018-11-02T23:49:59.295Z,70.98
2018-11-02T23:52:28.027Z,70.86
2018-11-02T23:54:56.773Z,70.73
2018-11-02T23:57:25.614Z,70.61
2018-11-02T23:59:54.322Z,70.63
